Time;durP1;ratioP1;P1;durP2;ratioP2;P2;SDS_P1;SDS_P2;PMS_P1;PMS_P2;Temp;Humidity;BMP_temperature;BMP_pressure;BME280_temperature;BME280_humidity;BME280_pressure;Samples;Min_cycle;Max_cycle;Signal;HPM_P1;HPM_P2
2024/04/23 00:01:33;;;;;;;3.45;3.05;;;;;;;10.07;94.10;96548.34;7394500;19;20006;-55
2024/04/23 00:03:58;;;;;;;4.45;2.88;;;;;;;10.10;93.78;96553.47;7394969;19;20041;-60
2024/04/23 00:06:24;;;;;;;3.90;3.10;;;;;;;10.05;93.93;96537.94;7394620;19;20016;-56
2024/04/23 00:08:49;;;;;;;3.10;2.80;;;;;;;10.05;94.35;96548.41;7393324;19;20011;-60
2024/04/23 00:11:15;;;;;;;7.55;2.80;;;;;;;10.01;94.60;96544.19;7394353;19;20014;-58
2024/04/23 00:13:40;;;;;;;4.47;2.83;;;;;;;9.95;95.70;96533.97;7394188;19;19995;-60
2024/04/23 00:16:06;;;;;;;6.30;2.92;;;;;;;9.94;96.05;96533.09;7394640;19;19999;-55
2024/04/23 00:18:32;;;;;;;3.83;2.80;;;;;;;9.91;96.90;96527.16;7394184;19;20351;-58
2024/04/23 00:20:57;;;;;;;3.28;2.63;;;;;;;9.87;96.99;96518.56;7394095;19;19995;-63
2024/04/23 00:23:23;;;;;;;4.25;3.15;;;;;;;9.85;97.12;96513.38;7394053;19;20024;-58
2024/04/23 00:25:49;;;;;;;4.35;2.40;;;;;;;9.77;98.95;96517.19;7393872;19;20009;-58
2024/04/23 00:28:15;;;;;;;3.08;2.60;;;;;;;9.83;97.39;96511.72;7392641;19;20008;-61
2024/04/23 00:30:40;;;;;;;3.95;3.13;;;;;;;9.83;97.53;96507.38;7395479;19;19998;-63
2024/04/23 00:33:06;;;;;;;4.22;2.58;;;;;;;9.79;97.88;96505.78;7401105;19;20001;-58
2024/04/23 00:35:35;;;;;;;3.13;2.83;;;;;;;9.75;99.95;96500.72;7401460;19;20087;-57
2024/04/23 00:38:01;;;;;;;5.78;2.83;;;;;;;9.76;99.10;96495.44;7399342;19;20091;-56
2024/04/23 00:40:30;;;;;;;3.17;2.90;;;;;;;9.65;100.00;96495.81;7401434;19;20014;-57
2024/04/23 00:42:56;;;;;;;5.93;2.90;;;;;;;9.73;98.54;96488.53;7401314;19;20374;-64
2024/04/23 00:45:24;;;;;;;3.42;3.10;;;;;;;9.71;99.92;96487.75;7400737;19;20006;-60
2024/04/23 00:47:50;;;;;;;3.53;2.92;;;;;;;9.72;99.66;96489.47;7399732;19;20002;-59
2024/04/23 00:50:17;;;;;;;3.85;2.85;;;;;;;9.68;100.00;96489.63;7400587;19;20066;-57
2024/04/23 00:52:43;;;;;;;5.63;3.47;;;;;;;9.73;99.17;96495.53;7400959;19;20019;-55
2024/04/23 00:55:10;;;;;;;4.32;3.28;;;;;;;9.68;100.00;96494.84;7400448;19;19999;-58
2024/04/23 00:57:36;;;;;;;3.47;3.17;;;;;;;9.65;100.00;96479.28;7400310;19;19990;-57
2024/04/23 01:00:02;;;;;;;3.47;3.17;;;;;;;9.57;100.00;96474.34;7400287;19;20007;-62
2024/04/23 01:02:28;;;;;;;6.53;2.92;;;;;;;9.57;100.00;96464.72;7400651;19;20080;-64
2024/04/23 01:04:54;;;;;;;4.20;2.80;;;;;;;9.57;100.00;96462.13;7400651;19;20006;-59
2024/04/23 01:07:19;;;;;;;6.90;3.47;;;;;;;9.62;100.00;96454.13;7400067;19;20490;-57
2024/04/23 01:09:45;;;;;;;4.57;3.38;;;;;;;9.65;99.94;96447.94;7400038;19;20002;-62
2024/04/23 01:12:10;;;;;;;6.40;3.25;;;;;;;9.60;100.00;96448.97;7400226;19;20008;-57
2024/04/23 01:14:40;;;;;;;3.45;3.10;;;;;;;9.57;100.00;96449.06;7400121;19;20471;-60
2024/04/23 01:17:07;;;;;;;4.50;3.50;;;;;;;9.62;100.00;96467.19;7399695;19;20003;-61
2024/04/23 01:19:44;;;;;;;3.85;3.45;;;;;;;9.59;100.00;96472.50;7399643;19;20062;-56
2024/04/23 01:22:21;;;;;;;5.15;4.15;;;;;;;9.75;98.58;96461.53;7400032;19;20006;-57
2024/04/23 01:24:58;;;;;;;5.30;3.83;;;;;;;9.84;97.02;96466.41;7399456;19;20003;-62
2024/04/23 01:27:24;;;;;;;5.18;3.20;;;;;;;9.71;98.74;96474.72;7398912;19;20010;-62
2024/04/23 01:29:50;;;;;;;4.35;3.83;;;;;;;9.76;98.54;96473.69;7399253;19;20016;-61
2024/04/23 01:32:20;;;;;;;7.65;3.90;;;;;;;9.86;97.44;96475.06;7399064;19;20011;-59
2024/04/23 01:34:47;;;;;;;3.58;3.00;;;;;;;9.95;96.38;96484.31;7399626;19;20400;-63
2024/04/23 01:37:14;;;;;;;5.07;3.38;;;;;;;9.93;96.50;96486.97;7398367;19;20009;-59
2024/04/23 01:39:40;;;;;;;4.07;3.55;;;;;;;9.83;96.45;96483.84;7399197;19;20489;-56
2024/04/23 01:42:07;;;;;;;4.88;4.13;;;;;;;9.94;95.70;96509.59;7398428;19;20155;-59
2024/04/23 01:44:33;;;;;;;5.32;3.75;;;;;;;9.93;96.48;96505.28;7398984;19;19994;-61
2024/04/23 01:46:59;;;;;;;5.43;3.83;;;;;;;9.92;96.31;96507.94;7399061;19;20007;-56
2024/04/23 01:49:25;;;;;;;6.05;3.78;;;;;;;9.90;96.22;96508.00;7396497;19;20031;-61
2024/04/23 01:51:51;;;;;;;9.23;4.10;;;;;;;9.91;96.02;96494.03;7398597;19;19999;-60
2024/04/23 01:54:16;;;;;;;9.88;4.28;;;;;;;9.86;97.19;96509.88;7398540;19;20016;-54
2024/04/23 01:56:42;;;;;;;3.78;3.25;;;;;;;9.91;96.58;96508.84;7398741;19;20003;-54
2024/04/23 01:59:08;;;;;;;6.68;3.60;;;;;;;9.89;96.27;96505.44;7398267;19;20345;-60
2024/04/23 02:01:37;;;;;;;4.05;3.50;;;;;;;9.94;95.51;96521.81;7398320;19;19995;-56
2024/04/23 02:04:05;;;;;;;5.20;3.35;;;;;;;9.94;96.21;96516.59;7398371;19;19993;-56
2024/04/23 02:06:31;;;;;;;3.13;2.88;;;;;;;9.84;96.86;96498.63;7398476;19;19998;-58
2024/04/23 02:08:59;;;;;;;3.40;3.10;;;;;;;9.82;96.66;96486.53;7396799;19;20082;-59
2024/04/23 02:11:25;;;;;;;7.63;3.50;;;;;;;9.81;97.36;96485.66;7397896;19;20003;-56
2024/04/23 02:13:51;;;;;;;5.45;3.38;;;;;;;9.83;96.65;96489.09;7398221;19;20014;-56
2024/04/23 02:16:17;;;;;;;3.90;3.50;;;;;;;9.80;96.94;96491.81;7397674;19;20007;-60
2024/04/23 02:18:42;;;;;;;5.00;3.00;;;;;;;9.84;96.44;96485.56;7397627;19;19991;-58
2024/04/23 02:21:08;;;;;;;3.22;2.90;;;;;;;9.82;96.79;96482.13;7397677;19;20006;-57
2024/04/23 02:23:34;;;;;;;5.13;3.00;;;;;;;9.77;97.49;96488.44;7397644;19;20062;-56
2024/04/23 02:25:59;;;;;;;3.22;2.92;;;;;;;9.74;97.33;96486.78;7397843;19;19998;-54
2024/04/23 02:28:25;;;;;;;3.63;2.92;;;;;;;9.67;98.52;96486.19;7396295;19;20519;-57
2024/04/23 02:30:50;;;;;;;4.35;2.95;;;;;;;9.69;97.74;96479.13;7397261;19;20062;-64
2024/04/23 02:33:16;;;;;;;4.22;3.03;;;;;;;9.66;100.00;96494.91;7397206;19;19998;-56
2024/04/23 02:35:41;;;;;;;3.22;2.90;;;;;;;9.69;98.21;96509.63;7397478;19;19998;-59
2024/04/23 02:38:07;;;;;;;2.88;2.67;;;;;;;9.67;99.15;96517.50;7395853;19;20070;-61
2024/04/23 02:40:32;;;;;;;5.22;3.10;;;;;;;9.68;99.24;96528.78;7396919;19;20501;-56
2024/04/23 02:42:58;;;;;;;4.85;3.13;;;;;;;9.69;98.67;96530.53;7397281;19;20006;-61
2024/04/23 02:45:23;;;;;;;6.47;2.97;;;;;;;9.69;99.48;96540.97;7397147;19;20413;-57
2024/04/23 02:47:49;;;;;;;4.75;3.70;;;;;;;9.71;98.87;96531.31;7396417;19;20007;-61
2024/04/23 02:50:15;;;;;;;7.70;3.20;;;;;;;9.66;99.46;96510.56;7396587;19;20582;-59
2024/04/23 02:52:40;;;;;;;5.85;2.92;;;;;;;9.57;100.00;96505.69;7396401;19;19998;-56
2024/04/23 02:55:06;;;;;;;4.70;3.20;;;;;;;9.58;100.00;96507.38;7395260;19;20005;-58
2024/04/23 02:57:31;;;;;;;4.63;3.47;;;;;;;9.54;100.00;96509.22;7394873;19;20070;-54
2024/04/23 02:59:57;;;;;;;4.00;3.65;;;;;;;9.55;100.00;96510.09;7396650;19;20006;-59
2024/04/23 03:02:22;;;;;;;5.60;3.65;;;;;;;9.57;100.00;96518.75;7396324;19;20562;-54
2024/04/23 03:04:48;;;;;;;7.85;3.50;;;;;;;9.52;100.00;96518.91;7396561;19;20033;-55
2024/04/23 03:07:14;;;;;;;5.65;3.63;;;;;;;9.56;100.00;96520.50;7395975;19;20316;-57
2024/04/23 03:09:39;;;;;;;3.95;3.00;;;;;;;9.54;100.00;96513.63;7396083;19;20021;-59
2024/04/23 03:12:05;;;;;;;6.85;3.80;;;;;;;9.52;100.00;96512.81;7396334;19;20006;-57
2024/04/23 03:14:31;;;;;;;3.70;3.40;;;;;;;9.49;100.00;96511.16;7395848;19;20347;-60
2024/04/23 03:16:56;;;;;;;7.90;4.05;;;;;;;9.51;100.00;96506.72;7395785;19;20001;-52
2024/04/23 03:19:22;;;;;;;5.30;3.05;;;;;;;9.47;100.00;96500.78;7396155;19;20020;-58
2024/04/23 03:21:54;;;;;;;4.97;3.88;;;;;;;9.48;100.00;96491.16;7395768;19;20018;-58
2024/04/23 03:24:21;;;;;;;6.28;4.18;;;;;;;9.42;100.00;96492.22;7395627;19;19999;-63
2024/04/23 03:26:46;;;;;;;6.18;3.63;;;;;;;9.48;100.00;96483.31;7395607;19;20351;-62
2024/04/23 03:29:12;;;;;;;4.07;3.53;;;;;;;9.38;100.00;96476.72;7394475;19;19995;-60
2024/04/23 03:31:38;;;;;;;6.32;3.60;;;;;;;9.38;100.00;96474.09;7395914;19;20455;-59
2024/04/23 03:34:03;;;;;;;3.63;3.33;;;;;;;9.41;100.00;96468.78;7395396;19;20002;-54
2024/04/23 03:36:29;;;;;;;4.00;3.55;;;;;;;9.35;100.00;96473.31;7395255;19;19995;-63
2024/04/23 03:38:54;;;;;;;6.72;3.88;;;;;;;9.30;100.00;96469.16;7393733;19;20009;-60
2024/04/23 03:41:20;;;;;;;11.25;3.90;;;;;;;9.29;100.00;96476.13;7395548;19;20336;-59
2024/04/23 03:43:45;;;;;;;8.57;4.20;;;;;;;9.33;100.00;96474.28;7395608;19;20511;-56
2024/04/23 03:46:11;;;;;;;5.97;4.05;;;;;;;9.25;100.00;96473.69;7395003;19;20507;-58
2024/04/23 03:48:37;;;;;;;4.38;3.97;;;;;;;9.27;100.00;96474.50;7393683;19;19995;-56
2024/04/23 03:51:02;;;;;;;5.78;4.55;;;;;;;9.30;100.00;96496.09;7394995;19;20016;-58
2024/04/23 03:53:28;;;;;;;7.22;4.57;;;;;;;9.31;100.00;96500.44;7395264;19;19999;-55
2024/04/23 03:55:53;;;;;;;7.10;5.15;;;;;;;9.27;100.00;96509.25;7394811;19;20483;-57
2024/04/23 03:58:19;;;;;;;5.43;4.35;;;;;;;9.24;100.00;96501.53;7394680;19;20085;-56
2024/04/23 04:00:45;;;;;;;5.00;4.50;;;;;;;9.23;100.00;96508.53;7395115;19;20074;-54
2024/04/23 04:06:04;;;;;;;5.72;4.30;;;;;;;9.12;100.00;96496.72;7400405;19;20005;-58
2024/04/23 04:08:30;;;;;;;9.30;4.65;;;;;;;9.01;100.00;96487.50;7400498;19;20010;-55
2024/04/23 04:10:55;;;;;;;6.13;5.07;;;;;;;8.93;100.00;96486.88;7402018;19;20024;-56
2024/04/23 04:13:21;;;;;;;5.40;4.90;;;;;;;8.93;100.00;96482.53;7401871;19;20003;-57
2024/04/23 04:15:47;;;;;;;10.60;5.50;;;;;;;8.83;100.00;96478.50;7402183;19;20017;-56
2024/04/23 04:18:12;;;;;;;6.28;4.90;;;;;;;8.91;100.00;96480.88;7401684;19;20010;-57
2024/04/23 04:20:38;;;;;;;6.15;5.50;;;;;;;8.90;100.00;96481.75;7401996;19;20022;-55
2024/04/23 04:23:04;;;;;;;7.35;5.35;;;;;;;8.81;100.00;96480.31;7401575;19;19999;-57
2024/04/23 04:25:29;;;;;;;7.15;5.25;;;;;;;8.87;100.00;96490.53;7401939;19;20003;-54
2024/04/23 04:27:55;;;;;;;6.30;5.53;;;;;;;8.87;100.00;96490.53;7400554;19;20607;-57
2024/04/23 04:30:20;;;;;;;6.20;5.60;;;;;;;8.89;100.00;96488.75;7401443;19;20016;-53
2024/04/23 04:32:46;;;;;;;9.25;5.65;;;;;;;8.75;100.00;96488.31;7401222;19;20002;-56
2024/04/23 04:35:12;;;;;;;7.82;5.53;;;;;;;8.75;100.00;96499.63;7401272;19;20005;-56
2024/04/23 04:37:45;;;;;;;5.72;5.18;;;;;;;8.74;100.00;96489.22;7399931;19;20050;-58
2024/04/23 04:40:11;;;;;;;6.00;4.90;;;;;;;8.69;100.00;96507.63;7401131;19;20352;-59
2024/04/23 04:42:37;;;;;;;7.80;5.20;;;;;;;8.76;100.00;96503.91;7400945;19;20021;-57
2024/04/23 04:45:04;;;;;;;10.85;6.35;;;;;;;8.67;100.00;96512.88;7400938;19;19995;-60
2024/04/23 04:47:30;;;;;;;8.98;5.50;;;;;;;8.63;100.00;96500.84;7400354;19;19999;-53
2024/04/23 04:49:56;;;;;;;6.53;5.90;;;;;;;8.63;100.00;96499.97;7400703;19;20409;-54
2024/04/23 04:52:21;;;;;;;6.22;5.18;;;;;;;8.60;100.00;96487.91;7400686;19;20002;-57
2024/04/23 04:54:47;;;;;;;7.20;5.03;;;;;;;8.53;100.00;96473.31;7400507;19;20026;-61
2024/04/23 04:57:13;;;;;;;7.15;5.13;;;;;;;8.55;100.00;96477.59;7400473;19;19999;-53
2024/04/23 04:59:39;;;;;;;5.57;4.68;;;;;;;8.61;100.00;96471.34;7400373;19;19994;-55
2024/04/23 05:02:05;;;;;;;5.35;4.30;;;;;;;8.54;100.00;96485.47;7400235;19;20006;-60
2024/04/23 05:04:30;;;;;;;6.50;4.95;;;;;;;8.57;100.00;96501.03;7400232;19;19994;-54
2024/04/23 05:06:56;;;;;;;5.20;4.80;;;;;;;8.58;100.00;96511.41;7400476;19;20357;-57
2024/04/23 05:09:22;;;;;;;6.47;5.10;;;;;;;8.60;100.00;96513.97;7397944;19;20006;-57
2024/04/23 05:11:48;;;;;;;8.65;5.03;;;;;;;8.46;100.00;96520.44;7399941;19;20490;-58
2024/04/23 05:14:13;;;;;;;6.60;5.90;;;;;;;8.51;100.00;96527.25;7399933;19;19998;-58
2024/04/23 05:16:43;;;;;;;6.05;5.47;;;;;;;8.49;100.00;96542.94;7398542;19;20351;-56
2024/04/23 05:19:10;;;;;;;5.97;4.93;;;;;;;8.41;100.00;96550.16;7399832;19;20032;-62
2024/04/23 05:21:35;;;;;;;6.53;5.47;;;;;;;8.43;100.00;96527.50;7399541;19;20459;-57
2024/04/23 05:24:02;;;;;;;8.23;5.70;;;;;;;8.40;100.00;96525.00;7400020;19;20028;-57
2024/04/23 05:26:27;;;;;;;8.32;5.05;;;;;;;8.45;100.00;96521.34;7400034;19;20007;-53
2024/04/23 05:28:53;;;;;;;10.65;6.38;;;;;;;8.44;100.00;96511.81;7397896;19;20484;-58
2024/04/23 05:34:03;;;;;;;5.53;5.00;;;;;;;8.43;100.00;96519.69;7399407;19;20474;-59
2024/04/23 05:36:28;;;;;;;6.35;5.05;;;;;;;8.43;100.00;96527.50;7397718;19;20010;-57
2024/04/23 05:38:54;;;;;;;5.88;5.05;;;;;;;8.50;100.00;96535.97;7397336;19;20345;-57
2024/04/23 05:41:20;;;;;;;4.28;3.88;;;;;;;8.46;100.00;96524.81;7399076;19;20011;-59
2024/04/23 05:43:45;;;;;;;4.80;4.30;;;;;;;8.53;100.00;96541.97;7398970;19;20002;-57
2024/04/23 05:46:11;;;;;;;6.93;5.03;;;;;;;8.55;100.00;96545.41;7399241;19;20084;-56
2024/04/23 05:49:14;;;;;;;4.97;4.50;;;;;;;8.61;100.00;96541.75;7397465;19;20003;-54
2024/04/23 05:52:16;;;;;;;4.57;4.18;;;;;;;8.53;100.00;96528.94;7398596;19;20002;-53
2024/04/23 05:55:19;;;;;;;4.47;4.18;;;;;;;8.53;100.00;96515.91;7399016;19;20364;-57
2024/04/23 05:57:45;;;;;;;4.40;4.00;;;;;;;8.47;100.00;96513.47;7398424;19;20014;-53
2024/04/23 06:00:10;;;;;;;9.07;4.22;;;;;;;8.58;100.00;96500.16;7398431;19;20007;-56
2024/04/23 06:02:36;;;;;;;4.50;4.10;;;;;;;8.53;100.00;96502.88;7398232;19;19998;-58
2024/04/23 06:05:02;;;;;;;4.63;3.90;;;;;;;8.61;100.00;96505.25;7398405;19;20386;-58
2024/04/23 06:07:27;;;;;;;5.22;4.53;;;;;;;8.64;100.00;96507.75;7397875;19;19994;-61
2024/04/23 06:09:53;;;;;;;4.15;3.80;;;;;;;8.66;100.00;96499.88;7398223;19;20002;-55
2024/04/23 06:12:19;;;;;;;5.25;4.53;;;;;;;8.60;100.00;96503.53;7397988;19;19995;-57
2024/04/23 06:14:44;;;;;;;6.18;4.68;;;;;;;8.68;100.00;96504.19;7397894;19;20012;-60
2024/04/23 06:17:20;;;;;;;6.18;4.50;;;;;;;8.62;100.00;96495.69;7397832;19;20496;-58
2024/04/23 06:19:50;;;;;;;5.10;4.63;;;;;;;8.70;100.00;96501.53;7397679;19;20069;-57
2024/04/23 06:22:20;;;;;;;8.25;4.90;;;;;;;8.72;100.00;96518.81;7397764;19;20010;-57
2024/04/23 06:24:47;;;;;;;5.60;5.10;;;;;;;8.72;100.00;96515.34;7398491;19;20003;-58
2024/04/23 06:27:22;;;;;;;7.78;6.38;;;;;;;8.80;100.00;96512.50;7397378;19;19998;-59
2024/04/23 06:29:54;;;;;;;6.80;6.18;;;;;;;8.90;100.00;96516.53;7395397;19;19999;-55
2024/04/23 06:32:21;;;;;;;9.30;6.55;;;;;;;8.78;100.00;96498.66;7397699;19;20011;-60
2024/04/23 06:34:47;;;;;;;7.60;6.40;;;;;;;8.80;100.00;96505.56;7397527;19;20007;-56
2024/04/23 06:37:13;;;;;;;7.85;7.00;;;;;;;8.91;100.00;96496.53;7396871;19;20476;-55
2024/04/23 06:39:40;;;;;;;8.77;6.40;;;;;;;8.85;100.00;96492.34;7397633;19;20030;-52
2024/04/23 06:42:05;;;;;;;7.15;5.70;;;;;;;8.91;100.00;96492.16;7397804;19;20074;-58
2024/04/23 06:44:31;;;;;;;7.07;5.53;;;;;;;8.84;100.00;96475.00;7397225;19;19999;-54
2024/04/23 06:46:57;;;;;;;5.95;5.20;;;;;;;8.74;100.00;96470.97;7397457;19;20106;-57
2024/04/23 06:49:24;;;;;;;4.82;4.43;;;;;;;8.75;100.00;96473.53;7395644;19;20070;-59
2024/04/23 06:51:50;;;;;;;8.25;3.90;;;;;;;8.77;100.00;96486.53;7396739;19;20367;-57
2024/04/23 06:54:16;;;;;;;4.70;4.20;;;;;;;8.87;100.00;96454.03;7396585;19;20003;-53
2024/04/23 06:56:42;;;;;;;5.28;4.78;;;;;;;9.09;100.00;96450.69;7396458;19;20354;-58
2024/04/23 06:59:08;;;;;;;6.35;3.80;;;;;;;9.05;100.00;96451.72;7396407;19;20403;-57
2024/04/23 07:01:35;;;;;;;4.10;3.70;;;;;;;8.98;100.00;96440.63;7396429;19;20503;-56
2024/04/23 07:04:01;;;;;;;4.82;4.45;;;;;;;9.23;100.00;96418.91;7396259;19;19995;-60
2024/04/23 07:06:26;;;;;;;5.35;4.85;;;;;;;9.28;100.00;96397.88;7396116;19;20027;-54
2024/04/23 07:08:53;;;;;;;5.72;4.28;;;;;;;9.24;100.00;96389.28;7395336;19;20007;-55
2024/04/23 07:11:19;;;;;;;8.75;4.10;;;;;;;9.06;100.00;96396.84;7396113;19;20003;-58
2024/04/23 07:13:46;;;;;;;4.97;4.57;;;;;;;9.00;100.00;96407.50;7396005;19;19998;-56
2024/04/23 07:16:15;;;;;;;4.97;4.57;;;;;;;9.01;100.00;96450.09;7395829;19;20015;-56
2024/04/23 07:18:41;;;;;;;4.32;3.92;;;;;;;8.96;100.00;96473.75;7395762;19;20010;-56
2024/04/23 07:21:07;;;;;;;5.13;4.10;;;;;;;8.79;100.00;96495.16;7395807;19;20009;-60
2024/04/23 07:23:33;;;;;;;5.05;4.57;;;;;;;8.91;100.00;96506.97;7395754;19;20002;-56
2024/04/23 07:25:59;;;;;;;8.68;5.85;;;;;;;8.98;100.00;96500.66;7395551;19;20463;-57
2024/04/23 07:28:25;;;;;;;6.05;5.55;;;;;;;8.85;100.00;96505.38;7394736;19;20013;-59
2024/04/23 07:30:51;;;;;;;6.28;5.78;;;;;;;8.90;100.00;96520.88;7395517;19;20475;-58
2024/04/23 07:33:18;;;;;;;5.05;4.55;;;;;;;8.85;100.00;96529.72;7395460;19;20014;-55
2024/04/23 07:35:45;;;;;;;6.25;5.75;;;;;;;9.02;100.00;96540.53;7395286;19;19999;-57
2024/04/23 07:38:11;;;;;;;6.22;5.72;;;;;;;9.10;100.00;96538.53;7394175;19;20014;-52
2024/04/23 07:40:38;;;;;;;6.50;5.07;;;;;;;8.87;100.00;96529.69;7394499;19;20007;-56
2024/04/23 07:43:04;;;;;;;4.95;4.50;;;;;;;8.93;100.00;96532.09;7395304;19;20459;-60
2024/04/23 07:45:32;;;;;;;5.65;4.28;;;;;;;9.04;100.00;96516.09;7395070;19;19998;-57
2024/04/23 07:47:57;;;;;;;5.07;4.28;;;;;;;8.98;100.00;96509.31;7394449;19;19998;-56
2024/04/23 07:50:23;;;;;;;3.10;2.90;;;;;;;8.92;100.00;96512.13;7394969;19;20002;-57
2024/04/23 07:52:49;;;;;;;4.03;3.67;;;;;;;8.95;100.00;96512.03;7395418;19;19999;-53
2024/04/23 07:55:14;;;;;;;5.55;3.15;;;;;;;8.91;100.00;96502.56;7395223;19;20482;-53
2024/04/23 07:57:44;;;;;;;3.63;3.03;;;;;;;8.91;100.00;96499.13;7395343;19;20489;-56
2024/04/23 08:00:10;;;;;;;3.13;2.83;;;;;;;8.97;100.00;96491.94;7394841;19;20006;-53
2024/04/23 08:02:35;;;;;;;4.75;2.65;;;;;;;9.09;100.00;96489.84;7395097;19;20031;-58
2024/04/23 08:05:01;;;;;;;2.88;2.67;;;;;;;9.19;100.00;96482.56;7394584;19;19995;-58
2024/04/23 08:07:27;;;;;;;4.72;3.60;;;;;;;9.20;100.00;96476.44;7394301;19;20026;-55
2024/04/23 08:09:52;;;;;;;5.07;2.67;;;;;;;9.10;100.00;96479.34;7394440;19;20001;-59
2024/04/23 08:12:18;;;;;;;6.25;3.85;;;;;;;9.16;100.00;96486.16;7394560;19;19999;-59
2024/04/23 08:14:43;;;;;;;5.22;4.65;;;;;;;9.23;100.00;96479.81;7394471;19;20328;-56
2024/04/23 08:17:09;;;;;;;8.05;3.80;;;;;;;9.12;100.00;96483.69;7394355;19;20086;-58
2024/04/23 08:19:35;;;;;;;7.22;4.55;;;;;;;9.21;100.00;96476.38;7394265;19;20401;-59
2024/04/23 08:22:01;;;;;;;4.93;4.45;;;;;;;9.16;100.00;96482.69;7394281;19;19995;-58
2024/04/23 08:24:26;;;;;;;2.78;2.53;;;;;;;9.29;100.00;96483.09;7394470;19;20010;-58
2024/04/23 08:26:52;;;;;;;2.50;2.30;;;;;;;9.26;100.00;96475.38;7394025;19;19999;-55
2024/04/23 08:29:18;;;;;;;1.77;1.67;;;;;;;9.32;100.00;96481.25;7392104;19;20429;-54
2024/04/23 08:31:43;;;;;;;4.55;2.10;;;;;;;9.39;100.00;96483.66;7394227;19;20340;-57
2024/04/23 08:34:09;;;;;;;2.10;2.00;;;;;;;9.32;100.00;96467.34;7393812;19;19999;-59
2024/04/23 08:36:34;;;;;;;4.15;3.35;;;;;;;9.23;100.00;96460.69;7393791;19;20484;-56
2024/04/23 08:39:00;;;;;;;3.00;2.75;;;;;;;9.25;100.00;96464.09;7391380;19;20014;-56
2024/04/23 08:41:27;;;;;;;2.63;2.42;;;;;;;9.21;100.00;96470.31;7393680;19;20344;-60
2024/04/23 08:44:05;;;;;;;2.03;1.60;;;;;;;9.18;100.00;96476.50;7393609;19;20001;-59
2024/04/23 08:46:31;;;;;;;1.95;1.85;;;;;;;9.22;100.00;96467.66;7393678;19;20028;-58
2024/04/23 08:48:57;;;;;;;2.15;1.70;;;;;;;9.18;100.00;96470.44;7391758;19;20003;-60
2024/04/23 08:51:23;;;;;;;2.08;1.88;;;;;;;9.23;100.00;96458.94;7394218;19;19999;-60
2024/04/23 08:53:49;;;;;;;1.50;1.38;;;;;;;9.08;100.00;96470.75;7400753;19;20020;-60
2024/04/23 08:56:23;;;;;;;2.78;1.63;;;;;;;9.19;100.00;96475.59;7400752;19;20459;-57
2024/04/23 08:58:49;;;;;;;1.70;1.60;;;;;;;9.21;100.00;96450.28;7400599;19;19998;-56
2024/04/23 09:01:31;;;;;;;2.00;1.80;;;;;;;9.18;100.00;96460.00;7400437;19;20002;-50
2024/04/23 09:03:59;;;;;;;1.75;1.65;;;;;;;9.08;100.00;96457.69;7400403;19;19999;-53
2024/04/23 09:06:25;;;;;;;5.32;2.30;;;;;;;9.08;100.00;96439.44;7400313;19;19998;-53
2024/04/23 09:08:53;;;;;;;2.10;1.90;;;;;;;9.12;100.00;96444.53;7398962;19;20006;-55
2024/04/23 09:11:18;;;;;;;2.33;2.13;;;;;;;9.09;100.00;96433.28;7400252;19;20002;-55
2024/04/23 09:13:44;;;;;;;2.45;2.30;;;;;;;9.11;100.00;96417.59;7399980;19;19995;-57
2024/04/23 09:16:10;;;;;;;2.60;2.40;;;;;;;9.08;100.00;96420.28;7399905;19;20010;-51
2024/04/23 09:18:35;;;;;;;3.13;2.60;;;;;;;9.17;100.00;96414.78;7400208;19;20339;-57
2024/04/23 09:21:02;;;;;;;2.70;2.50;;;;;;;9.09;100.00;96415.03;7399903;19;20350;-60
2024/04/23 09:23:31;;;;;;;5.97;2.80;;;;;;;9.16;100.00;96393.94;7399636;19;20003;-58
2024/04/23 09:26:03;;;;;;;3.10;2.90;;;;;;;9.10;100.00;96382.78;7399990;19;20359;-53
2024/04/23 09:28:35;;;;;;;4.07;2.72;;;;;;;9.08;100.00;96384.63;7398237;19;19998;-58
2024/04/23 09:31:01;;;;;;;5.10;2.83;;;;;;;9.12;100.00;96380.13;7399420;19;20002;-51
2024/04/23 09:33:29;;;;;;;2.70;2.50;;;;;;;9.15;100.00;96369.59;7399682;19;20009;-58
2024/04/23 09:36:06;;;;;;;2.80;2.60;;;;;;;9.18;100.00;96368.66;7399618;19;20023;-55
2024/04/23 09:38:35;;;;;;;2.85;2.65;;;;;;;9.17;100.00;96362.56;7396103;19;20002;-55
2024/04/23 09:41:02;;;;;;;3.03;2.72;;;;;;;9.22;100.00;96375.47;7399156;19;20007;-55
2024/04/23 09:43:28;;;;;;;2.78;2.58;;;;;;;9.24;100.00;96371.03;7398996;19;20058;-58
2024/04/23 09:45:54;;;;;;;3.20;2.90;;;;;;;9.31;100.00;96376.88;7399071;19;20019;-61
2024/04/23 09:48:34;;;;;;;2.70;2.50;;;;;;;9.24;100.00;96368.41;7397777;19;19995;-55
2024/04/23 09:51:01;;;;;;;2.00;1.90;;;;;;;9.27;100.00;96363.09;7398845;19;20012;-57
2024/04/23 09:53:30;;;;;;;3.03;2.83;;;;;;;9.42;100.00;96353.84;7398624;19;20005;-59
2024/04/23 09:56:02;;;;;;;2.38;2.17;;;;;;;9.34;100.00;96354.13;7398725;19;20023;-56
2024/04/23 09:58:32;;;;;;;3.35;2.42;;;;;;;9.40;100.00;96354.81;7398432;19;20451;-56
2024/04/23 10:00:58;;;;;;;2.95;2.63;;;;;;;9.29;100.00;96349.97;7398823;19;20014;-57
2024/04/23 10:03:25;;;;;;;3.28;2.97;;;;;;;9.39;100.00;96351.34;7398118;19;20006;-57
2024/04/23 10:05:51;;;;;;;3.55;3.25;;;;;;;9.43;100.00;96339.06;7397186;19;20002;-59
2024/04/23 10:08:30;;;;;;;4.50;3.88;;;;;;;9.40;100.00;96326.09;7397294;19;20071;-57
2024/04/23 10:10:56;;;;;;;3.53;3.22;;;;;;;9.38;100.00;96315.72;7398206;19;20028;-58
2024/04/23 10:13:35;;;;;;;3.50;3.20;;;;;;;9.42;100.00;96304.25;7398012;19;20009;-60
2024/04/23 10:16:15;;;;;;;4.57;4.00;;;;;;;9.35;100.00;96303.63;7398006;19;20062;-52
2024/04/23 10:18:55;;;;;;;4.28;3.88;;;;;;;9.35;100.00;96295.81;7397824;19;20036;-57
2024/04/23 10:21:25;;;;;;;5.35;4.47;;;;;;;9.41;100.00;96306.91;7397812;19;20006;-57
2024/04/23 10:23:54;;;;;;;6.10;5.60;;;;;;;9.39;100.00;96299.13;7397625;19;20009;-58
2024/04/23 10:26:23;;;;;;;8.32;7.53;;;;;;;9.32;100.00;96288.09;7397548;19;20088;-56
2024/04/23 10:28:50;;;;;;;8.63;7.68;;;;;;;9.35;100.00;96287.97;7396164;19;20062;-54
2024/04/23 10:31:17;;;;;;;9.90;7.60;;;;;;;9.28;100.00;96267.38;7397450;19;19998;-56
2024/04/23 10:33:47;;;;;;;11.05;8.73;;;;;;;9.29;100.00;96271.69;7397280;19;20010;-58
2024/04/23 10:36:15;;;;;;;12.65;9.88;;;;;;;9.33;100.00;96266.28;7397355;19;20007;-53
2024/04/23 10:38:43;;;;;;;14.02;10.30;;;;;;;9.36;100.00;96270.53;7395905;19;20002;-57
2024/04/23 10:41:11;;;;;;;19.63;11.68;;;;;;;9.31;100.00;96278.56;7397436;19;20014;-56
2024/04/23 10:43:38;;;;;;;78.20;14.25;;;;;;;9.30;100.00;96289.06;7396947;19;19995;-55
2024/04/23 10:46:05;;;;;;;21.10;12.13;;;;;;;9.25;100.00;96290.97;7396849;19;20479;-59
2024/04/23 10:48:36;;;;;;;15.27;11.77;;;;;;;9.32;100.00;96292.44;7396478;19;20006;-57
2024/04/23 10:51:02;;;;;;;14.10;12.60;;;;;;;9.44;100.00;96296.34;7397046;19;20374;-62
2024/04/23 10:53:33;;;;;;;18.17;14.20;;;;;;;9.52;100.00;96293.47;7396895;19;20003;-57
2024/04/23 10:55:59;;;;;;;11.02;9.60;;;;;;;9.51;100.00;96294.38;7396879;19;20010;-53
2024/04/23 10:58:25;;;;;;;18.58;16.67;;;;;;;9.50;100.00;96285.69;7396589;19;20011;-52
2024/04/23 11:01:03;;;;;;;14.07;11.93;;;;;;;9.52;100.00;96293.47;7396887;19;20054;-56
2024/04/23 11:03:33;;;;;;;10.50;9.40;;;;;;;9.50;100.00;96288.31;7396680;19;19995;-55
2024/04/23 11:05:59;;;;;;;9.57;8.68;;;;;;;9.48;100.00;96284.88;7396599;19;19992;-60
2024/04/23 11:08:26;;;;;;;9.00;8.10;;;;;;;9.51;100.00;96271.72;7395457;19;19994;-55
2024/04/23 11:11:04;;;;;;;10.23;9.18;;;;;;;9.55;100.00;96278.53;7396080;19;19998;-59
2024/04/23 11:13:35;;;;;;;8.10;7.30;;;;;;;9.45;100.00;96280.63;7396738;19;20005;-60
2024/04/23 11:16:18;;;;;;;8.18;7.47;;;;;;;9.54;100.00;96273.38;7395410;19;20006;-60
2024/04/23 11:18:48;;;;;;;9.55;7.38;;;;;;;9.57;100.00;96261.03;7396409;19;20003;-57
2024/04/23 11:21:23;;;;;;;7.95;7.00;;;;;;;9.64;100.00;96248.63;7396379;19;20003;-59
2024/04/23 11:23:50;;;;;;;8.07;7.28;;;;;;;9.66;100.00;96248.56;7395794;19;20002;-52
2024/04/23 11:26:16;;;;;;;9.55;7.60;;;;;;;9.69;100.00;96238.81;7395770;19;19997;-58
2024/04/23 11:28:42;;;;;;;6.70;6.07;;;;;;;9.67;100.00;96239.81;7394621;19;20382;-61
2024/04/23 11:31:08;;;;;;;7.90;7.20;;;;;;;9.75;100.00;96229.88;7395623;19;20003;-58
2024/04/23 11:33:38;;;;;;;6.60;6.00;;;;;;;9.77;100.00;96212.41;7396024;19;20089;-58
2024/04/23 11:36:05;;;;;;;6.30;5.80;;;;;;;9.84;100.00;96218.22;7395727;19;20006;-53
2024/04/23 11:38:42;;;;;;;5.50;4.95;;;;;;;9.82;100.00;96215.66;7393867;19;20040;-58
2024/04/23 11:41:09;;;;;;;5.22;4.38;;;;;;;9.89;100.00;96207.59;7395913;19;20038;-53